createdAt,value
2018-09-27T00:00:16.103Z,0
2018-09-27T00:00:45.803Z,0
2018-09-27T00:01:15.917Z,0
2018-09-27T00:01:45.656Z,0
2018-09-27T00:02:15.761Z,0
2018-09-27T00:02:45.662Z,0
2018-09-27T00:03:15.698Z,0
2018-09-27T00:03:45.929Z,0
2018-09-27T00:04:16.108Z,0
2018-09-27T00:04:45.759Z,0
2018-09-27T00:05:15.801Z,0
2018-09-27T00:05:45.623Z,0
2018-09-27T00:06:15.311Z,0
2018-09-27T00:06:45.001Z,0
2018-09-27T00:07:14.614Z,0
2018-09-27T00:07:44.110Z,0
2018-09-27T00:08:13.962Z,0
2018-09-27T00:08:43.477Z,0
2018-09-27T00:09:13.156Z,0
2018-09-27T00:09:42.669Z,0
2018-09-27T00:10:12.228Z,0
2018-09-27T00:10:42.059Z,0
2018-09-27T00:11:11.536Z,0
2018-09-27T00:11:42.096Z,0
2018-09-27T00:12:11.857Z,0
2018-09-27T00:12:42.023Z,0
2018-09-27T00:13:12.498Z,0
2018-09-27T00:13:42.180Z,0
2018-09-27T00:14:12.491Z,0
2018-09-27T00:14:42.451Z,0
2018-09-27T00:15:12.291Z,0
2018-09-27T00:15:41.695Z,0
2018-09-27T00:16:11.686Z,0
2018-09-27T00:16:41.713Z,0
2018-09-27T00:17:11.904Z,0
2018-09-27T00:17:41.716Z,0
2018-09-27T00:18:12.188Z,0
2018-09-27T00:18:41.815Z,0
2018-09-27T00:19:11.197Z,0
2018-09-27T00:19:40.741Z,0
2018-09-27T00:20:10.310Z,0
2018-09-27T00:20:40.375Z,0
2018-09-27T00:21:09.801Z,0
2018-09-27T00:21:39.169Z,0
2018-09-27T00:22:08.528Z,0
2018-09-27T00:22:38.466Z,0
2018-09-27T00:23:10.160Z,0
2018-09-27T00:23:39.662Z,0
2018-09-27T00:24:09.039Z,0
2018-09-27T00:24:38.454Z,0
2018-09-27T00:25:08.814Z,0
2018-09-27T00:25:38.512Z,0
2018-09-27T00:26:07.889Z,0
2018-09-27T00:26:37.466Z,0
2018-09-27T00:27:07.158Z,0
2018-09-27T00:27:36.528Z,0
2018-09-27T00:28:06.561Z,0
2018-09-27T00:28:35.963Z,0
2018-09-27T00:29:05.370Z,0
2018-09-27T00:29:34.904Z,0
2018-09-27T00:30:04.272Z,0
2018-09-27T00:30:33.908Z,0
2018-09-27T00:31:04.251Z,0
2018-09-27T00:31:35.029Z,0
2018-09-27T00:32:05.125Z,0
2018-09-27T00:32:34.760Z,0
2018-09-27T00:33:04.313Z,0
2018-09-27T00:33:33.865Z,0
2018-09-27T00:34:03.904Z,0
2018-09-27T00:34:33.571Z,0
2018-09-27T00:35:02.935Z,0
2018-09-27T00:35:32.835Z,0
2018-09-27T00:36:02.194Z,0
2018-09-27T00:36:32.235Z,0
2018-09-27T00:37:01.595Z,0
2018-09-27T00:37:31.172Z,0
2018-09-27T00:38:00.644Z,0
2018-09-27T00:38:30.086Z,0
2018-09-27T00:38:59.487Z,0
2018-09-27T00:39:29.056Z,0
2018-09-27T00:39:59.222Z,0
2018-09-27T00:40:28.952Z,0
2018-09-27T00:40:58.330Z,0
2018-09-27T00:41:28.844Z,0
2018-09-27T00:41:58.272Z,0
2018-09-27T00:42:28.312Z,0
2018-09-27T00:42:58.170Z,0
2018-09-27T00:43:28.890Z,0
2018-09-27T00:43:58.668Z,0
2018-09-27T00:44:29.259Z,0
2018-09-27T00:44:58.643Z,0
2018-09-27T00:45:28.184Z,0
2018-09-27T00:45:57.580Z,0
2018-09-27T00:46:27.094Z,0
2018-09-27T00:46:56.626Z,0
2018-09-27T00:47:26.257Z,0
2018-09-27T00:47:55.793Z,0
2018-09-27T00:48:25.162Z,0
2018-09-27T00:48:54.716Z,0
2018-09-27T00:49:24.212Z,0
2018-09-27T00:49:53.575Z,0
2018-09-27T00:50:23.362Z,0
2018-09-27T00:50:53.017Z,0
2018-09-27T00:51:22.932Z,0
2018-09-27T00:51:52.570Z,0
2018-09-27T00:52:22.430Z,0
2018-09-27T00:52:52.046Z,0
2018-09-27T00:53:21.619Z,0
2018-09-27T00:53:51.521Z,0
2018-09-27T00:54:20.960Z,0
2018-09-27T00:54:50.642Z,0
2018-09-27T00:55:20.238Z,0
2018-09-27T00:55:50.048Z,0
2018-09-27T00:56:19.624Z,0
2018-09-27T00:56:49.185Z,0
2018-09-27T00:57:19.893Z,0
2018-09-27T00:57:49.446Z,0
2018-09-27T00:58:19.078Z,0
2018-09-27T00:58:48.632Z,0
2018-09-27T00:59:18.217Z,0
2018-09-27T00:59:47.599Z,0
2018-09-27T01:00:17.712Z,0
2018-09-27T01:00:47.138Z,0
2018-09-27T01:01:16.870Z,0
2018-09-27T01:01:46.826Z,0
2018-09-27T01:02:16.520Z,0
2018-09-27T01:02:46.440Z,0
2018-09-27T01:03:16.484Z,0
2018-09-27T01:03:45.993Z,0
2018-09-27T01:04:15.594Z,0
2018-09-27T01:04:45.274Z,0
2018-09-27T01:05:15.211Z,0
2018-09-27T01:05:44.584Z,0
2018-09-27T01:06:14.142Z,0
2018-09-27T01:06:43.515Z,0
2018-09-27T01:07:13.167Z,0
2018-09-27T01:07:42.706Z,0
2018-09-27T01:08:12.245Z,0
2018-09-27T01:08:42.081Z,0
2018-09-27T01:09:11.972Z,0
2018-09-27T01:09:42.123Z,0
2018-09-27T01:10:11.723Z,0
2018-09-27T01:10:41.273Z,0
2018-09-27T01:11:10.686Z,0
2018-09-27T01:11:40.562Z,0
2018-09-27T01:12:10.335Z,0
2018-09-27T01:12:39.943Z,0
2018-09-27T01:13:09.570Z,0
2018-09-27T01:13:39.008Z,0
2018-09-27T01:14:08.606Z,0
2018-09-27T01:14:37.971Z,0
2018-09-27T01:15:07.409Z,0
2018-09-27T01:15:36.766Z,0
2018-09-27T01:16:06.290Z,0
2018-09-27T01:16:35.787Z,0
2018-09-27T01:17:05.574Z,0
2018-09-27T01:17:34.994Z,0
2018-09-27T01:18:04.437Z,0
2018-09-27T01:18:33.906Z,0
2018-09-27T01:19:03.273Z,0
2018-09-27T01:19:32.675Z,0
2018-09-27T01:20:03.029Z,0
2018-09-27T01:20:32.392Z,0
2018-09-27T01:21:01.763Z,0
2018-09-27T01:21:31.132Z,0
2018-09-27T01:22:00.506Z,0
2018-09-27T01:22:29.955Z,0
2018-09-27T01:23:00.593Z,0
2018-09-27T01:23:30.985Z,0
2018-09-27T01:24:00.394Z,0
2018-09-27T01:24:29.759Z,0
2018-09-27T01:24:59.128Z,0
2018-09-27T01:25:28.655Z,0
2018-09-27T01:25:58.020Z,0
2018-09-27T01:26:27.391Z,0
2018-09-27T01:26:56.762Z,0
2018-09-27T01:27:26.176Z,0
2018-09-27T01:27:55.704Z,0
2018-09-27T01:28:26.271Z,0
2018-09-27T01:28:55.880Z,0
2018-09-27T01:29:25.298Z,0
2018-09-27T01:29:54.816Z,0
2018-09-27T01:30:24.183Z,0
2018-09-27T01:30:53.555Z,0
2018-09-27T01:31:23.074Z,0
2018-09-27T01:31:52.537Z,0
2018-09-27T01:32:21.916Z,0
2018-09-27T01:32:51.287Z,0
2018-09-27T01:33:20.810Z,0
2018-09-27T01:33:50.246Z,0
2018-09-27T01:34:19.749Z,0
2018-09-27T01:34:49.256Z,0
2018-09-27T01:35:18.902Z,0
2018-09-27T01:35:48.262Z,0
2018-09-27T01:36:17.625Z,0
2018-09-27T01:36:47.039Z,0
2018-09-27T01:37:16.631Z,0
2018-09-27T01:37:45.995Z,0
2018-09-27T01:38:15.459Z,0
2018-09-27T01:38:45.273Z,0
2018-09-27T01:39:14.902Z,0
2018-09-27T01:39:44.267Z,0
2018-09-27T01:40:13.688Z,0
2018-09-27T01:40:43.076Z,0
2018-09-27T01:41:12.511Z,0
2018-09-27T01:41:41.885Z,0
2018-09-27T01:42:11.330Z,0
2018-09-27T01:42:40.907Z,0
2018-09-27T01:43:10.630Z,0
2018-09-27T01:43:40.105Z,0
2018-09-27T01:44:09.468Z,0
2018-09-27T01:44:39.090Z,0
2018-09-27T01:45:08.659Z,0
2018-09-27T01:45:38.021Z,0
2018-09-27T01:46:07.394Z,0
2018-09-27T01:46:36.918Z,0
2018-09-27T01:47:06.720Z,0
2018-09-27T01:47:36.040Z,0
2018-09-27T01:48:05.402Z,0
2018-09-27T01:48:34.856Z,0
2018-09-27T01:49:04.235Z,0
2018-09-27T01:49:33.626Z,0
2018-09-27T01:50:03.134Z,0
2018-09-27T01:50:32.653Z,0
2018-09-27T01:51:02.026Z,0
2018-09-27T01:51:31.391Z,0
2018-09-27T01:52:00.930Z,0
2018-09-27T01:52:30.499Z,0
2018-09-27T01:53:00.042Z,0
2018-09-27T01:53:29.412Z,0
2018-09-27T01:53:59.112Z,0
2018-09-27T01:54:28.727Z,0
2018-09-27T01:54:58.173Z,0
2018-09-27T01:55:27.644Z,0
2018-09-27T01:55:57.186Z,0
2018-09-27T01:56:26.890Z,0
2018-09-27T01:56:56.246Z,0
2018-09-27T01:57:25.618Z,0
2018-09-27T01:57:55.152Z,0
2018-09-27T01:58:24.598Z,0
2018-09-27T01:58:54.029Z,0
2018-09-27T01:59:23.392Z,0
2018-09-27T01:59:52.842Z,0
2018-09-27T02:00:22.308Z,0
2018-09-27T02:00:51.819Z,0
2018-09-27T02:01:21.365Z,0
2018-09-27T02:01:51.987Z,0
2018-09-27T02:02:22.504Z,0
2018-09-27T02:02:53.010Z,0
2018-09-27T02:03:22.635Z,0
2018-09-27T02:03:52.217Z,0
2018-09-27T02:04:21.586Z,0
2018-09-27T02:04:52.093Z,0
2018-09-27T02:05:21.467Z,0
2018-09-27T02:05:51.057Z,0
2018-09-27T02:06:20.591Z,0
2018-09-27T02:06:49.957Z,0
2018-09-27T02:07:19.336Z,0
2018-09-27T02:07:48.909Z,0
2018-09-27T02:08:18.524Z,0
2018-09-27T02:08:47.923Z,0
2018-09-27T02:09:17.534Z,0
2018-09-27T02:09:46.960Z,0
2018-09-27T02:10:16.437Z,0
2018-09-27T02:10:45.802Z,0
2018-09-27T02:11:15.170Z,0
2018-09-27T02:11:44.662Z,0
2018-09-27T02:12:14.030Z,0
2018-09-27T02:12:43.464Z,0
2018-09-27T02:13:13.174Z,0
2018-09-27T02:13:42.766Z,0
2018-09-27T02:14:12.221Z,0
2018-09-27T02:14:41.581Z,0
2018-09-27T02:15:11.071Z,0
2018-09-27T02:15:40.650Z,0
2018-09-27T02:16:10.041Z,0
2018-09-27T02:16:39.415Z,0
2018-09-27T02:17:09.022Z,0
2018-09-27T02:17:38.479Z,0
2018-09-27T02:18:07.861Z,0
2018-09-27T02:18:37.231Z,0
2018-09-27T02:19:06.612Z,0
2018-09-27T02:19:36.048Z,0
2018-09-27T02:20:05.418Z,0
2018-09-27T02:20:34.817Z,0
2018-09-27T02:21:04.813Z,0
2018-09-27T02:21:34.995Z,0
2018-09-27T02:22:04.537Z,0
2018-09-27T02:22:34.012Z,0
2018-09-27T02:23:03.401Z,0
2018-09-27T02:23:32.928Z,0
2018-09-27T02:24:02.537Z,0
2018-09-27T02:24:32.128Z,0
2018-09-27T02:25:01.586Z,0
2018-09-27T02:25:31.168Z,0
2018-09-27T02:26:00.830Z,0
2018-09-27T02:26:30.360Z,0
2018-09-27T02:26:59.753Z,0
2018-09-27T02:27:29.191Z,0
2018-09-27T02:27:58.612Z,0
2018-09-27T02:28:28.018Z,0
2018-09-27T02:28:57.454Z,0
2018-09-27T02:29:28.177Z,0
2018-09-27T02:29:58.041Z,0
2018-09-27T02:30:28.083Z,0
2018-09-27T02:30:57.454Z,0
2018-09-27T02:31:27.013Z,0
2018-09-27T02:31:56.601Z,0
2018-09-27T02:32:25.964Z,0
2018-09-27T02:32:56.567Z,0
2018-09-27T02:33:25.953Z,0
2018-09-27T02:33:55.519Z,0
2018-09-27T02:34:24.886Z,0
2018-09-27T02:34:54.729Z,0
2018-09-27T02:35:24.593Z,0
2018-09-27T02:35:54.513Z,0
2018-09-27T02:36:24.266Z,0
2018-09-27T02:36:54.128Z,0
2018-09-27T02:37:23.738Z,0
2018-09-27T02:37:53.156Z,0
2018-09-27T02:38:22.520Z,0
2018-09-27T02:38:52.893Z,0
2018-09-27T02:39:22.487Z,0
2018-09-27T02:39:51.860Z,0
2018-09-27T02:40:21.388Z,0
2018-09-27T02:40:51.779Z,0
2018-09-27T02:41:21.147Z,0
2018-09-27T02:41:50.522Z,0
2018-09-27T02:42:20.096Z,0
2018-09-27T02:42:49.712Z,0
2018-09-27T02:43:19.563Z,0
2018-09-27T02:43:49.214Z,0
2018-09-27T02:44:18.867Z,0
2018-09-27T02:44:49.235Z,0
2018-09-27T02:45:18.675Z,0
2018-09-27T02:45:48.283Z,0
2018-09-27T02:46:17.782Z,0
2018-09-27T02:46:47.415Z,0
2018-09-27T02:47:16.887Z,0
2018-09-27T02:47:46.460Z,0
2018-09-27T02:48:16.252Z,0
2018-09-27T02:48:45.991Z,0
2018-09-27T02:49:15.484Z,0
2018-09-27T02:49:45.082Z,0
2018-09-27T02:50:14.638Z,0
2018-09-27T02:50:44.005Z,0
2018-09-27T02:51:14.701Z,0
2018-09-27T02:51:44.298Z,0
2018-09-27T02:52:13.762Z,0
2018-09-27T02:52:43.128Z,0
2018-09-27T02:53:12.779Z,0
2018-09-27T02:53:42.681Z,0
2018-09-27T02:54:12.555Z,0
2018-09-27T02:54:42.017Z,0
2018-09-27T02:55:11.429Z,0
2018-09-27T02:55:40.962Z,0
2018-09-27T02:56:10.397Z,0
2018-09-27T02:56:39.766Z,0
2018-09-27T02:57:09.473Z,0
2018-09-27T02:57:39.160Z,0
2018-09-27T02:58:08.742Z,0
2018-09-27T02:58:38.207Z,0
2018-09-27T02:59:07.573Z,0
2018-09-27T02:59:37.258Z,0
2018-09-27T03:00:06.636Z,0
2018-09-27T03:00:36.133Z,0
2018-09-27T03:01:05.503Z,0
2018-09-27T03:01:35.136Z,0
2018-09-27T03:02:06.027Z,0
2018-09-27T03:02:35.461Z,0
2018-09-27T03:03:05.835Z,0
2018-09-27T03:03:35.322Z,0
2018-09-27T03:04:04.812Z,0
2018-09-27T03:04:34.486Z,0
2018-09-27T03:05:03.862Z,0
2018-09-27T03:05:34.337Z,0
2018-09-27T03:06:04.042Z,0
2018-09-27T03:06:33.946Z,0
2018-09-27T03:07:03.510Z,0
2018-09-27T03:07:33.087Z,0
2018-09-27T03:08:02.464Z,0
2018-09-27T03:08:32.396Z,0
2018-09-27T03:09:01.980Z,0
2018-09-27T03:09:31.854Z,0
2018-09-27T03:10:02.304Z,0
2018-09-27T03:10:31.691Z,0
2018-09-27T03:11:01.377Z,0
2018-09-27T03:11:30.886Z,0
2018-09-27T03:12:00.752Z,0
2018-09-27T03:12:30.234Z,0
2018-09-27T03:13:00.026Z,0
2018-09-27T03:13:29.557Z,0
2018-09-27T03:13:59.054Z,0
2018-09-27T03:14:28.303Z,0
2018-09-27T03:14:57.903Z,0
2018-09-27T03:15:27.264Z,0
2018-09-27T03:15:56.693Z,0
2018-09-27T03:16:26.058Z,0
2018-09-27T03:16:55.451Z,0
2018-09-27T03:17:25.794Z,0
2018-09-27T03:17:55.176Z,0
2018-09-27T03:18:24.544Z,0
2018-09-27T03:18:54.932Z,0
2018-09-27T03:19:25.114Z,0
2018-09-27T03:19:54.488Z,0
2018-09-27T03:20:25.030Z,0
2018-09-27T03:20:54.490Z,0
2018-09-27T03:21:23.818Z,0
2018-09-27T03:21:53.186Z,0
2018-09-27T03:22:22.540Z,0
2018-09-27T03:22:51.897Z,0
2018-09-27T03:23:21.264Z,0
2018-09-27T03:23:50.620Z,0
2018-09-27T03:24:19.978Z,0
2018-09-27T03:24:50.315Z,0
2018-09-27T03:25:19.693Z,0
2018-09-27T03:25:49.092Z,0
2018-09-27T03:26:18.463Z,0
2018-09-27T03:26:47.828Z,0
2018-09-27T03:27:18.194Z,0
2018-09-27T03:27:47.554Z,0
2018-09-27T03:28:16.916Z,0
2018-09-27T03:28:46.307Z,0
2018-09-27T03:29:15.637Z,0
2018-09-27T03:29:45.064Z,0
2018-09-27T03:30:14.423Z,0
2018-09-27T03:30:43.786Z,0
2018-09-27T03:31:13.208Z,0
2018-09-27T03:31:42.570Z,0
2018-09-27T03:32:11.938Z,0
2018-09-27T03:32:41.301Z,0
2018-09-27T03:33:10.654Z,0
2018-09-27T03:33:40.030Z,0
2018-09-27T03:34:09.393Z,0
2018-09-27T03:34:38.756Z,0
2018-09-27T03:35:08.107Z,0
2018-09-27T03:35:37.464Z,0
2018-09-27T03:36:06.850Z,0
2018-09-27T03:36:36.258Z,0
2018-09-27T03:37:05.650Z,0
2018-09-27T03:37:34.997Z,0
2018-09-27T03:38:05.357Z,0
2018-09-27T03:38:34.727Z,0
2018-09-27T03:39:04.084Z,0
2018-09-27T03:39:33.459Z,0
2018-09-27T03:40:02.834Z,0
2018-09-27T03:40:32.186Z,0
2018-09-27T03:41:01.532Z,0
2018-09-27T03:41:30.946Z,0
2018-09-27T03:42:00.307Z,0
2018-09-27T03:42:30.665Z,0
2018-09-27T03:43:00.038Z,0
2018-09-27T03:43:29.393Z,0
2018-09-27T03:43:59.754Z,0
2018-09-27T03:44:29.116Z,0
2018-09-27T03:44:58.478Z,0
2018-09-27T03:45:27.844Z,0
2018-09-27T03:45:57.243Z,0
2018-09-27T03:46:26.604Z,0
2018-09-27T03:46:57.014Z,0
2018-09-27T03:47:26.402Z,0
2018-09-27T03:47:55.744Z,0
2018-09-27T03:48:25.109Z,0
2018-09-27T03:48:54.490Z,0
2018-09-27T03:49:23.852Z,0
2018-09-27T03:49:53.214Z,0
2018-09-27T03:50:22.585Z,0
2018-09-27T03:50:52.013Z,0
2018-09-27T03:51:21.379Z,0
2018-09-27T03:51:50.792Z,0
2018-09-27T03:52:20.172Z,0
2018-09-27T03:52:49.560Z,0
2018-09-27T03:53:18.937Z,0
2018-09-27T03:53:48.307Z,0
2018-09-27T03:54:18.658Z,0
2018-09-27T03:54:48.031Z,0
2018-09-27T03:55:17.397Z,0
2018-09-27T03:55:46.752Z,0
2018-09-27T03:56:16.109Z,0
2018-09-27T03:56:45.470Z,0
2018-09-27T03:57:14.884Z,0
2018-09-27T03:57:44.240Z,0
2018-09-27T03:58:13.606Z,0
2018-09-27T03:58:42.972Z,0
2018-09-27T03:59:12.327Z,0
2018-09-27T03:59:41.700Z,0
2018-09-27T04:00:11.073Z,0
2018-09-27T04:00:40.434Z,0
2018-09-27T04:01:09.797Z,0
2018-09-27T04:01:39.195Z,0
2018-09-27T04:02:08.613Z,0
2018-09-27T04:02:38.966Z,0
2018-09-27T04:03:08.417Z,0
2018-09-27T04:03:37.720Z,0
2018-09-27T04:04:07.090Z,0
2018-09-27T04:04:36.473Z,0
2018-09-27T04:05:05.829Z,0
2018-09-27T04:05:35.190Z,0
2018-09-27T04:06:04.552Z,0
2018-09-27T04:06:33.931Z,0
2018-09-27T04:07:03.298Z,0
2018-09-27T04:07:32.723Z,0
2018-09-27T04:08:02.085Z,0
2018-09-27T04:08:31.457Z,0
2018-09-27T04:09:00.817Z,0
2018-09-27T04:09:30.181Z,0
2018-09-27T04:10:00.551Z,0
2018-09-27T04:10:29.919Z,0
2018-09-27T04:10:59.291Z,0
2018-09-27T04:11:28.652Z,0
2018-09-27T04:11:58.009Z,0
2018-09-27T04:12:27.478Z,0
2018-09-27T04:12:56.789Z,0
2018-09-27T04:13:26.136Z,0
2018-09-27T04:13:55.502Z,0
2018-09-27T04:14:25.854Z,0
2018-09-27T04:14:55.224Z,0
2018-09-27T04:15:24.619Z,0
2018-09-27T04:15:54.029Z,0
2018-09-27T04:16:23.350Z,0
2018-09-27T04:16:52.724Z,0
2018-09-27T04:17:22.107Z,0
2018-09-27T04:17:51.611Z,0
2018-09-27T04:18:20.975Z,0
2018-09-27T04:18:50.340Z,0
2018-09-27T04:19:19.687Z,0
2018-09-27T04:19:49.050Z,0
2018-09-27T04:20:18.410Z,0
2018-09-27T04:20:47.772Z,0
2018-09-27T04:21:18.121Z,0
2018-09-27T04:21:47.532Z,0
2018-09-27T04:22:16.829Z,0
2018-09-27T04:22:46.256Z,0
2018-09-27T04:23:15.626Z,0
2018-09-27T04:23:44.972Z,0
2018-09-27T04:24:14.336Z,0
2018-09-27T04:24:43.697Z,0
2018-09-27T04:25:13.046Z,0
2018-09-27T04:25:42.407Z,0
2018-09-27T04:26:11.773Z,0
2018-09-27T04:26:41.147Z,0
2018-09-27T04:27:10.512Z,0
2018-09-27T04:27:39.915Z,0
2018-09-27T04:28:09.308Z,0
2018-09-27T04:28:38.673Z,0
2018-09-27T04:29:08.028Z,0
2018-09-27T04:29:37.405Z,0
2018-09-27T04:30:06.748Z,0
2018-09-27T04:30:36.109Z,0
2018-09-27T04:31:05.479Z,0
2018-09-27T04:31:34.857Z,0
2018-09-27T04:32:04.219Z,0
2018-09-27T04:32:34.586Z,0
2018-09-27T04:33:04.993Z,0
2018-09-27T04:33:34.355Z,0
2018-09-27T04:34:03.722Z,0
2018-09-27T04:34:34.070Z,0
2018-09-27T04:35:03.437Z,0
2018-09-27T04:35:32.788Z,0
2018-09-27T04:36:02.147Z,0
2018-09-27T04:36:31.513Z,0
2018-09-27T04:37:00.895Z,0
2018-09-27T04:37:30.262Z,0
2018-09-27T04:37:59.632Z,0
2018-09-27T04:38:29.046Z,0
2018-09-27T04:38:58.408Z,0
2018-09-27T04:39:27.778Z,0
2018-09-27T04:39:57.230Z,0
2018-09-27T04:40:26.505Z,0
2018-09-27T04:40:55.903Z,0
2018-09-27T04:41:25.238Z,0
2018-09-27T04:41:54.612Z,0
2018-09-27T04:42:23.972Z,0
2018-09-27T04:42:53.354Z,0
2018-09-27T04:43:22.765Z,0
2018-09-27T04:43:52.137Z,0
2018-09-27T04:44:21.501Z,0
2018-09-27T04:44:51.869Z,0
2018-09-27T04:45:21.227Z,0
2018-09-27T04:45:50.629Z,0
2018-09-27T04:46:19.954Z,0
2018-09-27T04:46:49.369Z,0
2018-09-27T04:47:18.689Z,0
2018-09-27T04:47:48.045Z,0
2018-09-27T04:48:18.401Z,0
2018-09-27T04:48:47.818Z,0
2018-09-27T04:49:17.179Z,0
2018-09-27T04:49:46.564Z,0
2018-09-27T04:50:15.907Z,0
2018-09-27T04:50:45.274Z,0
2018-09-27T04:51:15.544Z,0
2018-09-27T04:51:44.933Z,0
2018-09-27T04:52:14.293Z,0
2018-09-27T04:52:43.664Z,0
2018-09-27T04:53:13.011Z,0
2018-09-27T04:53:42.419Z,0
2018-09-27T04:54:11.776Z,0
2018-09-27T04:54:41.137Z,0
2018-09-27T04:55:10.506Z,0
2018-09-27T04:55:39.872Z,0
2018-09-27T04:56:09.226Z,0
2018-09-27T04:56:38.597Z,0
2018-09-27T04:57:07.967Z,0
2018-09-27T04:57:37.344Z,0
2018-09-27T04:58:06.703Z,0
2018-09-27T04:58:36.063Z,0
2018-09-27T04:59:05.468Z,0
2018-09-27T04:59:35.820Z,0
2018-09-27T05:00:05.225Z,0
2018-09-27T05:00:34.552Z,0
2018-09-27T05:01:03.912Z,0
2018-09-27T05:01:34.257Z,0
2018-09-27T05:02:03.611Z,0
2018-09-27T05:02:32.986Z,0
2018-09-27T05:03:02.336Z,0
2018-09-27T05:03:31.687Z,0
2018-09-27T05:04:01.110Z,0
2018-09-27T05:04:30.477Z,0
2018-09-27T05:04:59.834Z,0
2018-09-27T05:05:30.186Z,0
2018-09-27T05:05:59.544Z,0
2018-09-27T05:06:28.929Z,0
2018-09-27T05:06:58.281Z,0
2018-09-27T05:07:27.640Z,0
2018-09-27T05:07:57.026Z,0
2018-09-27T05:08:26.405Z,0
2018-09-27T05:08:55.774Z,0
2018-09-27T05:09:25.196Z,0
2018-09-27T05:09:54.559Z,0
2018-09-27T05:10:23.945Z,0
2018-09-27T05:10:53.349Z,0
2018-09-27T05:11:22.732Z,0
2018-09-27T05:11:52.094Z,0
2018-09-27T05:12:21.469Z,0
2018-09-27T05:12:50.880Z,0
2018-09-27T05:13:20.250Z,0
2018-09-27T05:13:49.609Z,0
2018-09-27T05:14:19.025Z,0
2018-09-27T05:14:48.393Z,0
2018-09-27T05:15:17.751Z,0
2018-09-27T05:15:47.161Z,0
2018-09-27T05:16:16.499Z,0
2018-09-27T05:16:45.882Z,0
2018-09-27T05:17:15.246Z,0
2018-09-27T05:17:44.636Z,0
2018-09-27T05:18:14.010Z,0
2018-09-27T05:18:43.402Z,0
2018-09-27T05:19:12.769Z,0
2018-09-27T05:19:43.178Z,0
2018-09-27T05:20:12.539Z,0
2018-09-27T05:20:41.900Z,0
2018-09-27T05:21:11.260Z,0
2018-09-27T05:21:40.729Z,0
2018-09-27T05:22:09.978Z,0
2018-09-27T05:22:40.356Z,0
2018-09-27T05:23:09.799Z,0
2018-09-27T05:23:39.166Z,0
2018-09-27T05:24:08.533Z,0
2018-09-27T05:24:37.960Z,0
2018-09-27T05:25:07.336Z,0
2018-09-27T05:25:37.684Z,0
2018-09-27T05:26:07.063Z,0
2018-09-27T05:26:36.434Z,0
2018-09-27T05:27:05.893Z,0
2018-09-27T05:27:35.265Z,0
2018-09-27T05:28:05.608Z,0
2018-09-27T05:28:34.970Z,0
2018-09-27T05:29:04.339Z,0
2018-09-27T05:29:33.700Z,0
2018-09-27T05:30:03.132Z,0
2018-09-27T05:30:32.504Z,0
2018-09-27T05:31:01.887Z,0
2018-09-27T05:31:31.244Z,0
2018-09-27T05:32:00.656Z,0
2018-09-27T05:32:30.028Z,0
2018-09-27T05:32:59.397Z,0
2018-09-27T05:33:28.796Z,0
2018-09-27T05:33:58.161Z,0
2018-09-27T05:34:27.533Z,0
2018-09-27T05:34:56.946Z,0
2018-09-27T05:35:26.304Z,0
2018-09-27T05:35:55.677Z,0
2018-09-27T05:36:25.052Z,0
2018-09-27T05:36:54.420Z,0
2018-09-27T05:37:23.789Z,0
2018-09-27T05:37:53.150Z,0
2018-09-27T05:38:22.528Z,0
2018-09-27T05:38:51.893Z,0
2018-09-27T05:39:21.264Z,0
2018-09-27T05:39:50.646Z,0
2018-09-27T05:40:20.064Z,0
2018-09-27T05:40:49.458Z,0
2018-09-27T05:41:18.832Z,0
2018-09-27T05:41:48.199Z,0
2018-09-27T05:42:17.569Z,0
2018-09-27T05:42:46.944Z,0
2018-09-27T05:43:16.311Z,0
2018-09-27T05:43:45.685Z,1
2018-09-27T05:44:15.063Z,1
2018-09-27T05:44:44.424Z,0
2018-09-27T05:45:13.845Z,0
2018-09-27T05:45:43.215Z,1
2018-09-27T05:46:12.579Z,1
2018-09-27T05:46:41.957Z,0
2018-09-27T05:47:11.331Z,1
2018-09-27T05:47:40.690Z,1
2018-09-27T05:48:10.063Z,1
2018-09-27T05:48:39.440Z,1
2018-09-27T05:49:08.807Z,2
2018-09-27T05:49:38.168Z,1
2018-09-27T05:50:07.529Z,2
2018-09-27T05:50:36.959Z,1
2018-09-27T05:51:06.352Z,2
2018-09-27T05:51:35.768Z,2
2018-09-27T05:52:05.184Z,2
2018-09-27T05:52:34.549Z,2
2018-09-27T05:53:03.926Z,3
2018-09-27T05:53:33.320Z,3
2018-09-27T05:54:02.710Z,3
2018-09-27T05:54:32.093Z,3
2018-09-27T05:55:01.506Z,4
2018-09-27T05:55:31.906Z,4
2018-09-27T05:56:01.349Z,4
2018-09-27T05:56:30.637Z,4
2018-09-27T05:57:00.005Z,5
2018-09-27T05:57:29.405Z,5
2018-09-27T05:57:58.815Z,6
2018-09-27T05:58:28.225Z,6
2018-09-27T05:58:57.623Z,7
2018-09-27T05:59:27.143Z,8
2018-09-27T05:59:56.475Z,8
2018-09-27T06:00:25.938Z,8
2018-09-27T06:00:55.347Z,9
2018-09-27T06:01:24.729Z,10
2018-09-27T06:01:54.182Z,10
2018-09-27T06:02:23.531Z,11
2018-09-27T06:02:52.893Z,12
2018-09-27T06:03:22.252Z,12
2018-09-27T06:03:51.658Z,13
2018-09-27T06:04:21.041Z,14
2018-09-27T06:04:50.439Z,14
2018-09-27T06:05:19.805Z,16
2018-09-27T06:05:49.232Z,16
2018-09-27T06:06:19.627Z,18
2018-09-27T06:06:49.008Z,19
2018-09-27T06:07:18.375Z,20
2018-09-27T06:07:47.752Z,21
2018-09-27T06:08:17.133Z,22
2018-09-27T06:08:46.537Z,23
2018-09-27T06:09:15.917Z,24
2018-09-27T06:09:46.289Z,25
2018-09-27T06:10:15.652Z,26
2018-09-27T06:10:45.012Z,27
2018-09-27T06:11:14.452Z,28
2018-09-27T06:11:43.785Z,29
2018-09-27T06:12:13.158Z,30
2018-09-27T06:12:42.517Z,32
2018-09-27T06:13:11.884Z,33
2018-09-27T06:13:41.260Z,33
2018-09-27T06:14:10.631Z,35
2018-09-27T06:14:39.990Z,36
2018-09-27T06:15:10.368Z,37
2018-09-27T06:15:39.803Z,39
2018-09-27T06:16:09.186Z,39
2018-09-27T06:16:38.560Z,40
2018-09-27T06:17:07.935Z,42
2018-09-27T06:17:37.320Z,42
2018-09-27T06:18:06.704Z,43
2018-09-27T06:18:36.075Z,44
2018-09-27T06:19:05.456Z,45
2018-09-27T06:19:34.940Z,46
2018-09-27T06:20:04.199Z,47
2018-09-27T06:20:33.587Z,49
2018-09-27T06:21:02.948Z,51
2018-09-27T06:21:32.420Z,52
2018-09-27T06:22:01.743Z,54
2018-09-27T06:22:31.100Z,55
2018-09-27T06:23:00.506Z,57
2018-09-27T06:23:29.866Z,58
2018-09-27T06:23:59.244Z,60
2018-09-27T06:24:28.614Z,61
2018-09-27T06:24:57.977Z,62
2018-09-27T06:25:27.352Z,63
2018-09-27T06:25:56.769Z,66
2018-09-27T06:26:26.175Z,68
2018-09-27T06:26:55.550Z,70
2018-09-27T06:27:24.971Z,73
2018-09-27T06:27:54.314Z,75
2018-09-27T06:28:23.675Z,77
2018-09-27T06:28:54.079Z,79
2018-09-27T06:29:23.436Z,81
2018-09-27T06:29:52.800Z,82
2018-09-27T06:30:22.182Z,82
2018-09-27T06:30:51.586Z,83
2018-09-27T06:31:20.959Z,85
2018-09-27T06:31:50.380Z,87
2018-09-27T06:32:19.762Z,88
2018-09-27T06:32:49.134Z,90
2018-09-27T06:33:18.496Z,92
2018-09-27T06:33:47.864Z,95
2018-09-27T06:34:17.245Z,99
2018-09-27T06:34:46.618Z,103
2018-09-27T06:35:16.004Z,107
2018-09-27T06:35:45.367Z,108
2018-09-27T06:36:14.732Z,113
2018-09-27T06:36:44.176Z,117
2018-09-27T06:37:13.550Z,121
2018-09-27T06:37:42.921Z,125
2018-09-27T06:38:12.306Z,139
2018-09-27T06:38:41.709Z,151
2018-09-27T06:39:11.061Z,155
2018-09-27T06:39:40.425Z,157
2018-09-27T06:40:09.829Z,168
2018-09-27T06:40:39.199Z,178
2018-09-27T06:41:08.577Z,182
2018-09-27T06:41:37.933Z,171
2018-09-27T06:42:07.364Z,176
2018-09-27T06:42:36.730Z,177
2018-09-27T06:43:06.123Z,178
2018-09-27T06:43:35.503Z,179
2018-09-27T06:44:04.864Z,184
2018-09-27T06:44:34.319Z,208
2018-09-27T06:45:03.597Z,220
2018-09-27T06:45:32.977Z,219
2018-09-27T06:46:02.360Z,238
2018-09-27T06:46:31.718Z,251
2018-09-27T06:47:01.139Z,270
2018-09-27T06:47:30.514Z,283
2018-09-27T06:47:59.864Z,294
2018-09-27T06:48:29.398Z,304
2018-09-27T06:48:58.598Z,315
2018-09-27T06:49:27.961Z,328
2018-09-27T06:49:57.326Z,344
2018-09-27T06:50:26.703Z,361
2018-09-27T06:50:56.065Z,374
2018-09-27T06:51:25.451Z,384
2018-09-27T06:51:54.816Z,391
2018-09-27T06:52:24.225Z,395
2018-09-27T06:52:53.584Z,396
2018-09-27T06:53:22.958Z,399
2018-09-27T06:53:52.335Z,399
2018-09-27T06:54:21.692Z,387
2018-09-27T06:54:51.079Z,390
2018-09-27T06:55:20.634Z,415
2018-09-27T06:55:49.888Z,420
2018-09-27T06:56:19.131Z,420
2018-09-27T06:56:48.500Z,419
2018-09-27T06:57:17.910Z,425
2018-09-27T06:57:47.293Z,439
2018-09-27T06:58:16.666Z,457
2018-09-27T06:58:46.059Z,477
2018-09-27T06:59:15.465Z,498
2018-09-27T06:59:44.836Z,518
2018-09-27T07:00:14.225Z,534
2018-09-27T07:00:43.678Z,550
2018-09-27T07:01:13.006Z,559
2018-09-27T07:01:42.372Z,567
2018-09-27T07:02:11.737Z,576
2018-09-27T07:02:41.225Z,579
2018-09-27T07:03:10.517Z,578
2018-09-27T07:03:39.886Z,571
2018-09-27T07:04:09.251Z,565
2018-09-27T07:04:38.616Z,560
2018-09-27T07:05:08.036Z,560
2018-09-27T07:05:37.406Z,568
2018-09-27T07:06:06.798Z,583
2018-09-27T07:06:36.182Z,598
2018-09-27T07:07:05.599Z,614
2018-09-27T07:07:34.979Z,631
2018-09-27T07:08:04.359Z,651
2018-09-27T07:08:33.772Z,669
2018-09-27T07:09:03.112Z,683
2018-09-27T07:09:32.493Z,697
2018-09-27T07:10:01.852Z,705
2018-09-27T07:10:31.218Z,715
2018-09-27T07:11:00.623Z,726
2018-09-27T07:11:29.938Z,734
2018-09-27T07:11:59.390Z,741
2018-09-27T07:12:28.872Z,742